地図

経路データ

SID SEASON NUMBER BASIN SUBBASIN NAME ISO_TIME NATURE LAT LON WMO_WIND WMO_PRES WMO_AGENCY TRACK_TYPE DIST2LAND LANDFALL IFLAG USA_AGENCY USA_ATCF_ID USA_LAT USA_LON USA_RECORD USA_STATUS USA_WIND USA_PRES USA_SSHS USA_R34_NE USA_R34_SE USA_R34_SW USA_R34_NW USA_R50_NE USA_R50_SE USA_R50_SW USA_R50_NW USA_R64_NE USA_R64_SE USA_R64_SW USA_R64_NW USA_POCI USA_ROCI USA_RMW USA_EYE TOKYO_LAT TOKYO_LON TOKYO_GRADE TOKYO_WIND TOKYO_PRES TOKYO_R50_DIR TOKYO_R50_LONG TOKYO_R50_SHORT TOKYO_R30_DIR TOKYO_R30_LONG TOKYO_R30_SHORT TOKYO_LAND CMA_LAT CMA_LON CMA_CAT CMA_WIND CMA_PRES HKO_LAT HKO_LON HKO_CAT HKO_WIND HKO_PRES NEWDELHI_LAT NEWDELHI_LON NEWDELHI_GRADE NEWDELHI_WIND NEWDELHI_PRES NEWDELHI_CI NEWDELHI_DP NEWDELHI_POCI REUNION_LAT REUNION_LON REUNION_TYPE REUNION_WIND REUNION_PRES REUNION_TNUM REUNION_CI REUNION_RMW REUNION_R34_NE REUNION_R34_SE REUNION_R34_SW REUNION_R34_NW REUNION_R50_NE REUNION_R50_SE REUNION_R50_SW REUNION_R50_NW REUNION_R64_NE REUNION_R64_SE REUNION_R64_SW REUNION_R64_NW BOM_LAT BOM_LON BOM_TYPE BOM_WIND BOM_PRES BOM_TNUM BOM_CI BOM_RMW BOM_R34_NE BOM_R34_SE BOM_R34_SW BOM_R34_NW BOM_R50_NE BOM_R50_SE BOM_R50_SW BOM_R50_NW BOM_R64_NE BOM_R64_SE BOM_R64_SW BOM_R64_NW BOM_ROCI BOM_POCI BOM_EYE BOM_POS_METHOD BOM_PRES_METHOD NADI_LAT NADI_LON NADI_CAT NADI_WIND NADI_PRES WELLINGTON_LAT WELLINGTON_LON WELLINGTON_WIND WELLINGTON_PRES DS824_LAT DS824_LON DS824_STAGE DS824_WIND DS824_PRES TD9636_LAT TD9636_LON TD9636_STAGE TD9636_WIND TD9636_PRES TD9635_LAT TD9635_LON TD9635_WIND TD9635_PRES TD9635_ROCI NEUMANN_LAT NEUMANN_LON NEUMANN_CLASS NEUMANN_WIND NEUMANN_PRES MLC_LAT MLC_LON MLC_CLASS MLC_WIND MLC_PRES USA_GUST BOM_GUST BOM_GUST_PER REUNION_GUST REUNION_GUST_PER USA_SEAHGT USA_SEARAD_NE USA_SEARAD_SE USA_SEARAD_SW USA_SEARAD_NW STORM_SPEED STORM_DIR
1888184N24088 1888 24 NI BB NOT_NAMED 1888-07-02 00:00:00 TS 23.5000 88.3000 main 0 0 _________O____ -1 23.5000 88.3000 TC 30 8 285
1888184N24088 1888 24 NI BB NOT_NAMED 1888-07-02 03:00:00 TS 23.6021 87.8953 main 0 0 _________PO___ -1 23.6531 87.6929 TC 30 23.5000 88.3000 1 9 285
1888184N24088 1888 24 NI BB NOT_NAMED 1888-07-02 06:00:00 TS 23.7333 87.3549 main 0 0 _________OP___ -1 23.8000 87.1000 TC 30 23.6333 87.7373 1 10 285
1888184N24088 1888 24 NI BB NOT_NAMED 1888-07-02 09:00:00 TS 23.8694 86.7952 main 0 0 _________PP___ -1 23.9420 86.5221 TC 30 23.7725 87.1593 1 11 285
1888184N24088 1888 24 NI BB NOT_NAMED 1888-07-02 12:00:00 TS 24.0128 86.2259 main 0 0 _________OP___ -1 24.1000 85.9000 TC 30 23.9256 86.5518 1 12 286
1888184N24088 1888 24 NI BB NOT_NAMED 1888-07-02 15:00:00 TS 24.2003 85.5139 main 0 0 _________PO___ -1 24.3005 85.1278 TC 30 24.1000 85.9000 1 14 287
1888184N24088 1888 24 NI BB NOT_NAMED 1888-07-02 18:00:00 TS 24.3987 84.8018 main 0 0 _________OP___ -1 24.5000 84.4000 TC 30 24.2974 85.2037 1 13 288
1888184N24088 1888 24 NI BB NOT_NAMED 1888-07-02 21:00:00 TS 24.5882 84.1796 main 0 0 _________PP___ -1 24.6797 83.8374 TC 30 24.4968 84.5217 1 10 289
1888184N24088 1888 24 NI BB NOT_NAMED 1888-07-03 00:00:00 TS 24.7362 83.7143 main 0 0 _________OP___ -1 24.8000 83.5000 TC 30 24.6725 83.9286 1 7 289
1888184N24088 1888 24 NI BB NOT_NAMED 1888-07-03 03:00:00 TS 24.8111 83.4662 main 0 0 _________PO___ -1 24.8223 83.4323 TC 30 24.8000 83.5000 1 3 288
1888184N24088 1888 24 NI BB NOT_NAMED 1888-07-03 06:00:00 TS 24.8244 83.4133 main 0 0 _________OP___ -1 24.8000 83.5000 TC 30 24.8488 83.3265 1 1 285
1888184N24088 1888 24 NI BB NOT_NAMED 1888-07-03 09:00:00 TS 24.8255 83.4095 main 0 0 _________PP___ -1 24.8000 83.5000 TC 30 24.8509 83.3190 1 0 106
1888184N24088 1888 24 NI BB NOT_NAMED 1888-07-03 12:00:00 TS 24.8138 83.4510 main 0 0 _________OP___ -1 24.8000 83.5000 TC 30 24.8276 83.4020 1 1 109
1888184N24088 1888 24 NI BB NOT_NAMED 1888-07-03 15:00:00 TS 24.8000 83.5000 main 0 0 _________PO___ -1 24.8000 83.5000 TC 30 24.8000 83.5000 1 1 111
1888184N24088 1888 24 NI BB NOT_NAMED 1888-07-03 18:00:00 TS 24.7856 83.5283 main 0 0 _________OP___ -1 24.8000 83.5000 TC 30 24.7713 83.5565 1 1 119
1888184N24088 1888 24 NI BB NOT_NAMED 1888-07-03 21:00:00 TS 24.7622 83.5709 main 0 0 _________PP___ -1 24.7774 83.5374 TC 30 24.7470 83.6043 1 0 0
1888184N24088 1888 24 NI BB NOT_NAMED 1888-07-04 00:00:00 TS 24.7746 83.5500 main 0 0 _________OP___ -1 24.8000 83.5000 TC 30 24.7492 83.6000 1 2 304
1888184N24088 1888 24 NI BB NOT_NAMED 1888-07-04 03:00:00 TS 24.8599 83.4087 main 0 0 _________PO___ -1 24.9199 83.3174 TC 30 24.8000 83.5000 1 4 301
1888184N24088 1888 24 NI BB NOT_NAMED 1888-07-04 06:00:00 TS 25.0044 83.1254 main 0 0 _________OP___ -1 25.1000 83.0000 TC 30 24.9089 83.2508 1 7 297
1888184N24088 1888 24 NI BB NOT_NAMED 1888-07-04 09:00:00 TS 25.1767 82.7351 main 0 0 _________PP___ -1 25.2852 82.5651 TC 30 25.0681 82.9051 1 8 297
1888184N24088 1888 24 NI BB NOT_NAMED 1888-07-04 12:00:00 TS 25.3841 82.3034 main 0 0 _________OP___ -1 25.5000 82.1000 TC 30 25.2682 82.5069 1 9 301
1888184N24088 1888 24 NI BB NOT_NAMED 1888-07-04 15:00:00 TS 25.6174 81.9174 main 0 0 _________PO___ -1 25.7348 81.7348 TC 30 25.5000 82.1000 1 8 306
1888184N24088 1888 24 NI BB NOT_NAMED 1888-07-04 18:00:00 TS 25.8601 81.5828 main 0 0 _________OP___ -1 26.0000 81.4000 TC 30 25.7552 81.7198 1 8 310
1888184N24088 1888 24 NI BB NOT_NAMED 1888-07-04 21:00:00 TS 26.1336 81.2418 main 0 0 _________PP___ -1 26.2927 81.0554 TC 30 26.0275 81.3660 1 8 313
1888184N24088 1888 24 NI BB NOT_NAMED 1888-07-05 00:00:00 TS 26.4074 80.9194 main 0 0 _________OP___ -1 26.6000 80.7000 TC 30 26.3111 81.0292 1 7 314
1888184N24088 1888 24 NI BB NOT_NAMED 1888-07-05 03:00:00 NR 26.6000 80.7000 main 0 __________O___ -1 TC 26.6000 80.7000 1 6 314

IBTrACS Databaseについて

本データベースは、米国NOAAが公開する1842年以降の世界の熱帯低気圧のベストトラックデータアーカイブInternational Best Track Archive for Climate Stewardship (IBTrACS)を、ウェブで閲覧しやすい形式に変換したものです。

最終更新日:2021-11-26